sensor_id;sensor_type;location;lat;lon;timestamp;pressure;altitude;pressure_sealevel;temperature;humidity
42105;BME280;68365;51.472;5.712;2023-04-03T00:01:15;102741.03;;;15.21;100.00
42105;BME280;68365;51.472;5.712;2023-04-03T00:03:41;102735.13;;;15.19;100.00
42105;BME280;68365;51.472;5.712;2023-04-03T00:06:07;102742.81;;;15.20;100.00
42105;BME280;68365;51.472;5.712;2023-04-03T00:08:36;102743.09;;;15.17;100.00
42105;BME280;68365;51.472;5.712;2023-04-03T00:11:03;102744.06;;;15.16;100.00
42105;BME280;68365;51.472;5.712;2023-04-03T00:13:29;102751.91;;;15.16;100.00
42105;BME280;68365;51.472;5.712;2023-04-03T00:15:56;102750.41;;;15.14;100.00
42105;BME280;68365;51.472;5.712;2023-04-03T00:18:22;102741.59;;;15.15;100.00
42105;BME280;68365;51.472;5.712;2023-04-03T00:20:48;102750.41;;;15.14;100.00
42105;BME280;68365;51.472;5.712;2023-04-03T00:23:14;102745.19;;;15.14;100.00
42105;BME280;68365;51.472;5.712;2023-04-03T00:25:40;102752.19;;;15.13;100.00
42105;BME280;68365;51.472;5.712;2023-04-03T00:28:06;102749.88;;;15.10;100.00
42105;BME280;68365;51.472;5.712;2023-04-03T00:30:32;102747.94;;;15.12;100.00
42105;BME280;68365;51.472;5.712;2023-04-03T00:32:58;102748.06;;;15.11;100.00
42105;BME280;68365;51.472;5.712;2023-04-03T00:35:25;102748.88;;;15.11;100.00
42105;BME280;68365;51.472;5.712;2023-04-03T00:37:52;102741.34;;;15.08;100.00
42105;BME280;68365;51.472;5.712;2023-04-03T00:40:19;102748.19;;;15.09;100.00
42105;BME280;68365;51.472;5.712;2023-04-03T00:42:48;102750.00;;;15.08;100.00
42105;BME280;68365;51.472;5.712;2023-04-03T00:45:43;102748.50;;;15.06;100.00
42105;BME280;68365;51.472;5.712;2023-04-03T00:48:16;102747.69;;;15.05;100.00
42105;BME280;68365;51.472;5.712;2023-04-03T00:50:43;102749.59;;;15.03;100.00
42105;BME280;68365;51.472;5.712;2023-04-03T00:53:16;102750.56;;;15.02;100.00
42105;BME280;68365;51.472;5.712;2023-04-03T00:55:43;102753.03;;;15.04;100.00
42105;BME280;68365;51.472;5.712;2023-04-03T00:58:10;102757.28;;;15.05;100.00
42105;BME280;68365;51.472;5.712;2023-04-03T01:00:40;102756.06;;;14.99;100.00
42105;BME280;68365;51.472;5.712;2023-04-03T01:03:07;102763.75;;;15.01;100.00
42105;BME280;68365;51.472;5.712;2023-04-03T01:05:33;102768.31;;;14.99;100.00
42105;BME280;68365;51.472;5.712;2023-04-03T01:08:00;102773.41;;;15.00;100.00
42105;BME280;68365;51.472;5.712;2023-04-03T01:10:25;102757.72;;;15.00;100.00
42105;BME280;68365;51.472;5.712;2023-04-03T01:12:51;102758.00;;;14.97;100.00
42105;BME280;68365;51.472;5.712;2023-04-03T01:15:25;102766.81;;;14.96;100.00
42105;BME280;68365;51.472;5.712;2023-04-03T01:17:57;102765.16;;;14.95;100.00
42105;BME280;68365;51.472;5.712;2023-04-03T01:23:30;102772.31;;;14.93;100.00
42105;BME280;68365;51.472;5.712;2023-04-03T01:25:58;102775.63;;;14.95;100.00
42105;BME280;68365;51.472;5.712;2023-04-03T01:28:31;102766.41;;;14.91;100.00
42105;BME280;68365;51.472;5.712;2023-04-03T01:33:35;102778.63;;;14.91;100.00
42105;BME280;68365;51.472;5.712;2023-04-03T01:36:02;102776.00;;;14.91;100.00
42105;BME280;68365;51.472;5.712;2023-04-03T01:38:29;102765.72;;;14.89;100.00
42105;BME280;68365;51.472;5.712;2023-04-03T01:40:55;102771.75;;;14.89;100.00
42105;BME280;68365;51.472;5.712;2023-04-03T01:43:20;102773.69;;;14.87;100.00
42105;BME280;68365;51.472;5.712;2023-04-03T01:45:46;102769.41;;;14.86;100.00
42105;BME280;68365;51.472;5.712;2023-04-03T01:48:13;102774.63;;;14.86;100.00
42105;BME280;68365;51.472;5.712;2023-04-03T01:50:39;102769.56;;;14.85;100.00
42105;BME280;68365;51.472;5.712;2023-04-03T01:53:05;102762.81;;;14.82;100.00
42105;BME280;68365;51.472;5.712;2023-04-03T01:55:31;102770.38;;;14.85;100.00
42105;BME280;68365;51.472;5.712;2023-04-03T01:57:56;102774.94;;;14.83;100.00
42105;BME280;68365;51.472;5.712;2023-04-03T02:00:22;102773.41;;;14.81;100.00
42105;BME280;68365;51.472;5.712;2023-04-03T02:02:48;102772.31;;;14.83;100.00
42105;BME280;68365;51.472;5.712;2023-04-03T02:05:14;102780.16;;;14.83;100.00
42105;BME280;68365;51.472;5.712;2023-04-03T02:07:40;102776.72;;;14.83;100.00
42105;BME280;68365;51.472;5.712;2023-04-03T02:10:06;102779.47;;;14.81;100.00
42105;BME280;68365;51.472;5.712;2023-04-03T02:12:32;102776.84;;;14.81;100.00
42105;BME280;68365;51.472;5.712;2023-04-03T02:14:58;102790.06;;;14.80;100.00
42105;BME280;68365;51.472;5.712;2023-04-03T02:17:24;102788.41;;;14.79;100.00
42105;BME280;68365;51.472;5.712;2023-04-03T02:19:50;102782.75;;;14.74;100.00
42105;BME280;68365;51.472;5.712;2023-04-03T02:22:16;102783.31;;;14.77;100.00
42105;BME280;68365;51.472;5.712;2023-04-03T02:24:41;102783.44;;;14.76;100.00
42105;BME280;68365;51.472;5.712;2023-04-03T02:27:07;102792.09;;;14.76;100.00
42105;BME280;68365;51.472;5.712;2023-04-03T02:29:33;102786.88;;;14.76;100.00
42105;BME280;68365;51.472;5.712;2023-04-03T02:31:59;102783.44;;;14.76;100.00
42105;BME280;68365;51.472;5.712;2023-04-03T02:34:25;102781.94;;;14.73;100.00
42105;BME280;68365;51.472;5.712;2023-04-03T02:36:51;102790.59;;;14.74;100.00
42105;BME280;68365;51.472;5.712;2023-04-03T02:39:16;102787.16;;;14.73;100.00
42105;BME280;68365;51.472;5.712;2023-04-03T02:41:42;102788.97;;;14.73;100.00
42105;BME280;68365;51.472;5.712;2023-04-03T02:44:10;102787.28;;;14.72;100.00
42105;BME280;68365;51.472;5.712;2023-04-03T02:46:37;102787.41;;;14.70;100.00
42105;BME280;68365;51.472;5.712;2023-04-03T02:49:03;102787.59;;;14.68;100.00
42105;BME280;68365;51.472;5.712;2023-04-03T02:51:29;102784.81;;;14.70;100.00
42105;BME280;68365;51.472;5.712;2023-04-03T02:53:55;102791.84;;;14.69;100.00
42105;BME280;68365;51.472;5.712;2023-04-03T02:56:20;102792.53;;;14.72;100.00
42105;BME280;68365;51.472;5.712;2023-04-03T02:58:47;102788.81;;;14.64;100.00
42105;BME280;68365;51.472;5.712;2023-04-03T03:01:13;102794.56;;;14.68;100.00
42105;BME280;68365;51.472;5.712;2023-04-03T03:03:39;102798.03;;;14.68;100.00
42105;BME280;68365;51.472;5.712;2023-04-03T03:06:12;102789.50;;;14.66;100.00
42105;BME280;68365;51.472;5.712;2023-04-03T03:08:38;102789.50;;;14.66;100.00
42105;BME280;68365;51.472;5.712;2023-04-03T03:11:05;102785.63;;;14.61;100.00
42105;BME280;68365;51.472;5.712;2023-04-03T03:13:31;102789.06;;;14.61;100.00
42105;BME280;68365;51.472;5.712;2023-04-03T03:15:58;102783.84;;;14.61;100.00
42105;BME280;68365;51.472;5.712;2023-04-03T03:18:24;102791.56;;;14.63;100.00
42105;BME280;68365;51.472;5.712;2023-04-03T03:20:58;102793.47;;;14.61;100.00
42105;BME280;68365;51.472;5.712;2023-04-03T03:23:27;102795.00;;;14.63;100.00
42105;BME280;68365;51.472;5.712;2023-04-03T03:26:04;102796.09;;;14.61;100.00
42105;BME280;68365;51.472;5.712;2023-04-03T03:28:31;102793.47;;;14.61;100.00
42105;BME280;68365;51.472;5.712;2023-04-03T03:30:58;102788.38;;;14.59;100.00
42105;BME280;68365;51.472;5.712;2023-04-03T03:33:25;102796.22;;;14.59;100.00
42105;BME280;68365;51.472;5.712;2023-04-03T03:35:53;102803.25;;;14.59;100.00
42105;BME280;68365;51.472;5.712;2023-04-03T03:38:20;102805.03;;;14.58;100.00
42105;BME280;68365;51.472;5.712;2023-04-03T03:40:48;102794.59;;;14.58;100.00
42105;BME280;68365;51.472;5.712;2023-04-03T03:43:15;102796.50;;;14.56;100.00
42105;BME280;68365;51.472;5.712;2023-04-03T03:45:41;102807.78;;;14.57;100.00
42105;BME280;68365;51.472;5.712;2023-04-03T03:48:07;102805.16;;;14.57;100.00
42105;BME280;68365;51.472;5.712;2023-04-03T03:50:33;102809.66;;;14.55;100.00
42105;BME280;68365;51.472;5.712;2023-04-03T03:52:59;102813.22;;;14.54;100.00
42105;BME280;68365;51.472;5.712;2023-04-03T03:55:25;102808.28;;;14.51;100.00
42105;BME280;68365;51.472;5.712;2023-04-03T03:57:51;102812.81;;;14.48;100.00
42105;BME280;68365;51.472;5.712;2023-04-03T04:00:17;102817.75;;;14.52;100.00
42105;BME280;68365;51.472;5.712;2023-04-03T04:02:43;102814.75;;;14.46;100.00
42105;BME280;68365;51.472;5.712;2023-04-03T04:05:09;102818.88;;;14.49;100.00
42105;BME280;68365;51.472;5.712;2023-04-03T04:07:35;102821.34;;;14.51;100.00
42105;BME280;68365;51.472;5.712;2023-04-03T04:10:01;102808.69;;;14.46;100.00
42105;BME280;68365;51.472;5.712;2023-04-03T04:12:27;102826.56;;;14.51;100.00
42105;BME280;68365;51.472;5.712;2023-04-03T04:14:53;102829.19;;;14.51;100.00
42105;BME280;68365;51.472;5.712;2023-04-03T04:17:19;102825.88;;;14.48;100.00
42105;BME280;68365;51.472;5.712;2023-04-03T04:19:45;102817.47;;;14.45;100.00
42105;BME280;68365;51.472;5.712;2023-04-03T04:22:11;102823.41;;;14.47;100.00
42105;BME280;68365;51.472;5.712;2023-04-03T04:24:37;102826.00;;;14.47;100.00
42105;BME280;68365;51.472;5.712;2023-04-03T04:27:02;102822.56;;;14.46;100.00
42105;BME280;68365;51.472;5.712;2023-04-03T04:29:28;102823.53;;;14.45;100.00
42105;BME280;68365;51.472;5.712;2023-04-03T04:31:54;102822.69;;;14.45;100.00
42105;BME280;68365;51.472;5.712;2023-04-03T04:34:20;102824.50;;;14.44;100.00
42105;BME280;68365;51.472;5.712;2023-04-03T04:36:46;102822.81;;;14.43;100.00
42105;BME280;68365;51.472;5.712;2023-04-03T04:39:11;102829.84;;;14.43;100.00
42105;BME280;68365;51.472;5.712;2023-04-03T04:41:37;102819.81;;;14.38;100.00
42105;BME280;68365;51.472;5.712;2023-04-03T04:44:03;102831.75;;;14.41;100.00
42105;BME280;68365;51.472;5.712;2023-04-03T04:46:29;102830.81;;;14.42;100.00
42105;BME280;68365;51.472;5.712;2023-04-03T04:48:54;102836.03;;;14.42;100.00
42105;BME280;68365;51.472;5.712;2023-04-03T04:51:20;102825.97;;;14.37;100.00
42105;BME280;68365;51.472;5.712;2023-04-03T04:53:46;102841.53;;;14.39;100.00
42105;BME280;68365;51.472;5.712;2023-04-03T04:56:12;102833.69;;;14.39;100.00
42105;BME280;68365;51.472;5.712;2023-04-03T04:58:38;102848.53;;;14.38;100.00
42105;BME280;68365;51.472;5.712;2023-04-03T05:01:07;102845.09;;;14.38;100.00
42105;BME280;68365;51.472;5.712;2023-04-03T05:03:33;102842.50;;;14.38;100.00
42105;BME280;68365;51.472;5.712;2023-04-03T05:05:59;102843.56;;;14.35;100.00
42105;BME280;68365;51.472;5.712;2023-04-03T05:08:26;102847.84;;;14.36;100.00
42105;BME280;68365;51.472;5.712;2023-04-03T05:10:52;102854.00;;;14.35;100.00
42105;BME280;68365;51.472;5.712;2023-04-03T05:13:19;102856.78;;;14.34;100.00
42105;BME280;68365;51.472;5.712;2023-04-03T05:15:45;102856.78;;;14.34;100.00
42105;BME280;68365;51.472;5.712;2023-04-03T05:18:11;102857.59;;;14.34;100.00
42105;BME280;68365;51.472;5.712;2023-04-03T05:20:37;102854.28;;;14.32;100.00
42105;BME280;68365;51.472;5.712;2023-04-03T05:23:04;102852.50;;;14.33;100.00
42105;BME280;68365;51.472;5.712;2023-04-03T05:25:30;102856.09;;;14.32;100.00
42105;BME280;68365;51.472;5.712;2023-04-03T05:27:55;102864.75;;;14.32;100.00
42105;BME280;68365;51.472;5.712;2023-04-03T05:30:22;102865.69;;;14.31;100.00
42105;BME280;68365;51.472;5.712;2023-04-03T05:32:47;102868.31;;;14.31;100.00
42105;BME280;68365;51.472;5.712;2023-04-03T05:35:13;102868.31;;;14.31;100.00
42105;BME280;68365;51.472;5.712;2023-04-03T05:37:39;102866.66;;;14.30;100.00
42105;BME280;68365;51.472;5.712;2023-04-03T05:40:06;102867.59;;;14.29;100.00
42105;BME280;68365;51.472;5.712;2023-04-03T05:42:32;102870.91;;;14.31;100.00
42105;BME280;68365;51.472;5.712;2023-04-03T05:44:58;102864.28;;;14.27;100.00
42105;BME280;68365;51.472;5.712;2023-04-03T05:47:25;102866.91;;;14.27;100.00
42105;BME280;68365;51.472;5.712;2023-04-03T05:49:51;102871.06;;;14.29;100.00
42105;BME280;68365;51.472;5.712;2023-04-03T05:52:30;102870.22;;;14.29;100.00
42105;BME280;68365;51.472;5.712;2023-04-03T05:54:57;102878.06;;;14.29;100.00
42105;BME280;68365;51.472;5.712;2023-04-03T05:57:23;102881.53;;;14.29;100.00
42105;BME280;68365;51.472;5.712;2023-04-03T05:59:49;102875.72;;;14.26;100.00
42105;BME280;68365;51.472;5.712;2023-04-03T06:02:24;102872.00;;;14.28;100.00
42105;BME280;68365;51.472;5.712;2023-04-03T06:04:50;102877.81;;;14.32;100.00
42105;BME280;68365;51.472;5.712;2023-04-03T06:07:22;102883.03;;;14.32;100.00
42105;BME280;68365;51.472;5.712;2023-04-03T06:09:50;102885.38;;;14.35;100.00
42105;BME280;68365;51.472;5.712;2023-04-03T06:12:18;102887.03;;;14.36;100.00
42105;BME280;68365;51.472;5.712;2023-04-03T06:14:44;102892.97;;;14.38;100.00
42105;BME280;68365;51.472;5.712;2023-04-03T06:17:09;102884.16;;;14.39;100.00
42105;BME280;68365;51.472;5.712;2023-04-03T06:19:37;102880.16;;;14.35;100.00
42105;BME280;68365;51.472;5.712;2023-04-03T06:22:03;102890.91;;;14.42;100.00
42105;BME280;68365;51.472;5.712;2023-04-03T06:24:30;102895.28;;;14.41;100.00
42105;BME280;68365;51.472;5.712;2023-04-03T06:26:56;102890.75;;;14.43;100.00
42105;BME280;68365;51.472;5.712;2023-04-03T06:29:23;102897.38;;;14.47;100.00
42105;BME280;68365;51.472;5.712;2023-04-03T06:31:50;102886.09;;;14.47;100.00
42105;BME280;68365;51.472;5.712;2023-04-03T06:34:16;102897.81;;;14.53;100.00
42105;BME280;68365;51.472;5.712;2023-04-03T06:36:44;102880.34;;;14.53;100.00
42105;BME280;68365;51.472;5.712;2023-04-03T06:39:16;102894.97;;;14.56;100.00
42105;BME280;68365;51.472;5.712;2023-04-03T06:41:43;102899.81;;;14.60;100.00
42105;BME280;68365;51.472;5.712;2023-04-03T06:44:10;102911.09;;;14.61;100.00
42105;BME280;68365;51.472;5.712;2023-04-03T06:46:37;102909.19;;;14.63;100.00
42105;BME280;68365;51.472;5.712;2023-04-03T06:49:04;102907.38;;;14.63;100.00
42105;BME280;68365;51.472;5.712;2023-04-03T06:51:30;102911.50;;;14.66;100.00
42105;BME280;68365;51.472;5.712;2023-04-03T06:53:58;102908.91;;;14.66;100.00
42105;BME280;68365;51.472;5.712;2023-04-03T06:56:25;102914.81;;;14.68;100.00
42105;BME280;68365;51.472;5.712;2023-04-03T06:58:53;102907.81;;;14.68;100.00
42105;BME280;68365;51.472;5.712;2023-04-03T07:01:20;102909.34;;;14.71;100.00
42105;BME280;68365;51.472;5.712;2023-04-03T07:03:47;102922.28;;;14.73;100.00
42105;BME280;68365;51.472;5.712;2023-04-03T07:06:16;102921.31;;;14.74;100.00
42105;BME280;68365;51.472;5.712;2023-04-03T07:08:43;102919.66;;;14.73;100.00
42105;BME280;68365;51.472;5.712;2023-04-03T07:11:10;102931.22;;;14.80;100.00
42105;BME280;68365;51.472;5.712;2023-04-03T07:13:37;102934.81;;;14.79;100.00
42105;BME280;68365;51.472;5.712;2023-04-03T07:16:04;102921.75;;;14.79;100.00
42105;BME280;68365;51.472;5.712;2023-04-03T07:18:31;102925.88;;;14.81;100.00
42105;BME280;68365;51.472;5.712;2023-04-03T07:20:58;102930.69;;;14.86;100.00
42105;BME280;68365;51.472;5.712;2023-04-03T07:23:24;102930.28;;;14.91;100.00
42105;BME280;68365;51.472;5.712;2023-04-03T07:25:52;102931.84;;;14.93;100.00
42105;BME280;68365;51.472;5.712;2023-04-03T07:28:19;102939.41;;;14.96;100.00
42105;BME280;68365;51.472;5.712;2023-04-03T07:30:48;102937.59;;;14.97;100.00
42105;BME280;68365;51.472;5.712;2023-04-03T07:33:17;102933.75;;;15.01;100.00
42105;BME280;68365;51.472;5.712;2023-04-03T07:35:43;102935.56;;;15.00;100.00
42105;BME280;68365;51.472;5.712;2023-04-03T07:38:10;102945.88;;;15.02;100.00
42105;BME280;68365;51.472;5.712;2023-04-03T07:40:37;102952.91;;;15.01;100.00
42105;BME280;68365;51.472;5.712;2023-04-03T07:43:04;102949.44;;;15.01;100.00
42105;BME280;68365;51.472;5.712;2023-04-03T07:45:31;102951.81;;;15.04;100.00
42105;BME280;68365;51.472;5.712;2023-04-03T07:47:57;102951.53;;;15.07;100.00
42105;BME280;68365;51.472;5.712;2023-04-03T07:50:23;102950.03;;;15.04;100.00
42105;BME280;68365;51.472;5.712;2023-04-03T07:52:49;102950.72;;;15.06;100.00
42105;BME280;68365;51.472;5.712;2023-04-03T07:55:16;102954.00;;;15.08;100.00
42105;BME280;68365;51.472;5.712;2023-04-03T07:57:42;102946.16;;;15.08;100.00
42105;BME280;68365;51.472;5.712;2023-04-03T08:00:09;102956.50;;;15.10;100.00
42105;BME280;68365;51.472;5.712;2023-04-03T08:02:35;102958.44;;;15.08;100.00
42105;BME280;68365;51.472;5.712;2023-04-03T08:05:01;102957.06;;;15.14;100.00
42105;BME280;68365;51.472;5.712;2023-04-03T08:07:26;102959.16;;;15.20;100.00
42105;BME280;68365;51.472;5.712;2023-04-03T08:09:52;102964.63;;;15.17;100.00
42105;BME280;68365;51.472;5.712;2023-04-03T08:12:18;102950.72;;;15.16;100.00
42105;BME280;68365;51.472;5.712;2023-04-03T08:14:44;102962.16;;;15.15;100.00
42105;BME280;68365;51.472;5.712;2023-04-03T08:17:10;102961.44;;;15.13;100.00
42105;BME280;68365;51.472;5.712;2023-04-03T08:19:40;102963.38;;;15.11;100.00
42105;BME280;68365;51.472;5.712;2023-04-03T08:22:06;102963.38;;;15.11;100.00
42105;BME280;68365;51.472;5.712;2023-04-03T08:24:33;102955.69;;;15.09;100.00
42105;BME280;68365;51.472;5.712;2023-04-03T08:26:59;102950.47;;;15.09;100.00
42105;BME280;68365;51.472;5.712;2023-04-03T08:29:26;102961.03;;;15.08;100.00
42105;BME280;68365;51.472;5.712;2023-04-03T08:31:52;102956.50;;;15.10;100.00
42105;BME280;68365;51.472;5.712;2023-04-03T08:34:19;102964.22;;;15.12;100.00
42105;BME280;68365;51.472;5.712;2023-04-03T08:36:45;102956.38;;;15.12;100.00
42105;BME280;68365;51.472;5.712;2023-04-03T08:39:12;102963.66;;;15.08;100.00
42105;BME280;68365;51.472;5.712;2023-04-03T08:41:45;102957.63;;;15.07;100.00
42105;BME280;68365;51.472;5.712;2023-04-03T08:44:47;102965.47;;;15.07;100.00
42105;BME280;68365;51.472;5.712;2023-04-03T08:47:37;102963.09;;;15.04;100.00
42105;BME280;68365;51.472;5.712;2023-04-03T08:50:11;102965.59;;;15.06;100.00
42105;BME280;68365;51.472;5.712;2023-04-03T08:53:00;102972.75;;;15.04;100.00
42105;BME280;68365;51.472;5.712;2023-04-03T08:55:36;102964.47;;;15.08;100.00
42105;BME280;68365;51.472;5.712;2023-04-03T08:58:29;102969.19;;;15.15;100.00
42105;BME280;68365;51.472;5.712;2023-04-03T09:01:05;102976.84;;;14.97;100.00
42105;BME280;68365;51.472;5.712;2023-04-03T09:03:39;102970.38;;;14.91;100.00
42105;BME280;68365;51.472;5.712;2023-04-03T09:06:27;102962.41;;;15.02;100.00
42105;BME280;68365;51.472;5.712;2023-04-03T09:19:54;102960.91;;;15.09;100.00
42105;BME280;68365;51.472;5.712;2023-04-03T09:22:28;102974.69;;;15.12;100.00
42105;BME280;68365;51.472;5.712;2023-04-03T09:25:17;102981.69;;;15.11;100.00
42105;BME280;68365;51.472;5.712;2023-04-03T09:27:45;102968.06;;;15.07;100.00
42105;BME280;68365;51.472;5.712;2023-04-03T09:30:24;102968.47;;;15.13;100.00
42105;BME280;68365;51.472;5.712;2023-04-03T09:32:53;102960.63;;;15.13;100.00
42105;BME280;68365;51.472;5.712;2023-04-03T09:35:34;102970.28;;;15.12;100.00
42105;BME280;68365;51.472;5.712;2023-04-03T09:40:38;102953.47;;;15.15;100.00
42105;BME280;68365;51.472;5.712;2023-04-03T09:43:28;102971.53;;;15.18;100.00
42105;BME280;68365;51.472;5.712;2023-04-03T09:46:16;102961.91;;;15.18;100.00
42105;BME280;68365;51.472;5.712;2023-04-03T09:49:12;102954.03;;;15.18;100.00
42105;BME280;68365;51.472;5.712;2023-04-03T09:51:38;102959.41;;;15.17;100.00
42105;BME280;68365;51.472;5.712;2023-04-03T09:54:36;102957.47;;;15.19;100.00
42105;BME280;68365;51.472;5.712;2023-04-03T09:57:13;102953.75;;;15.21;100.00
42105;BME280;68365;51.472;5.712;2023-04-03T10:00:00;102947.84;;;15.19;100.00
42105;BME280;68365;51.472;5.712;2023-04-03T10:05:05;102943.03;;;15.24;100.00
42105;BME280;68365;51.472;5.712;2023-04-03T10:07:50;102946.34;;;15.26;100.00
42105;BME280;68365;51.472;5.712;2023-04-03T10:10:21;102945.53;;;15.26;100.00
42105;BME280;68365;51.472;5.712;2023-04-03T10:13:05;102948.84;;;15.28;100.00
42105;BME280;68365;51.472;5.712;2023-04-03T10:15:44;102942.06;;;15.25;100.00
42105;BME280;68365;51.472;5.712;2023-04-03T10:20:50;102928.16;;;15.25;100.00
42105;BME280;68365;51.472;5.712;2023-04-03T10:23:42;102928.72;;;15.28;100.00
42105;BME280;68365;51.472;5.712;2023-04-03T10:41:21;102910.81;;;15.34;100.00
42105;BME280;68365;51.472;5.712;2023-04-03T10:48:07;102902.69;;;15.37;100.00
42105;BME280;68365;51.472;5.712;2023-04-03T10:56:18;102888.94;;;15.44;100.00
42105;BME280;68365;51.472;5.712;2023-04-03T10:59:32;102881.75;;;15.46;100.00
42105;BME280;68365;51.472;5.712;2023-04-03T11:05:39;102887.69;;;15.48;100.00
42105;BME280;68365;51.472;5.712;2023-04-03T11:11:29;102875.97;;;15.43;100.00
42105;BME280;68365;51.472;5.712;2023-04-03T11:16:42;102879.84;;;15.48;100.00
42105;BME280;68365;51.472;5.712;2023-04-03T11:19:18;102891.25;;;15.47;100.00
42105;BME280;68365;51.472;5.712;2023-04-03T11:21:56;102876.38;;;15.48;100.00
42105;BME280;68365;51.472;5.712;2023-04-03T11:24:27;102874.19;;;15.53;100.00
42105;BME280;68365;51.472;5.712;2023-04-03T11:26:56;102883.53;;;15.56;100.00
42105;BME280;68365;51.472;5.712;2023-04-03T11:29:31;102877.63;;;15.54;100.00
42105;BME280;68365;51.472;5.712;2023-04-03T11:34:41;102867.81;;;15.56;100.00
42105;BME280;68365;51.472;5.712;2023-04-03T11:37:51;102864.09;;;15.58;100.00
42105;BME280;68365;51.472;5.712;2023-04-03T11:40:28;102865.63;;;15.61;100.00
42105;BME280;68365;51.472;5.712;2023-04-03T11:50:43;102849.06;;;15.60;100.00
42105;BME280;68365;51.472;5.712;2023-04-03T11:55:54;102854.19;;;15.62;100.00
42105;BME280;68365;51.472;5.712;2023-04-03T11:58:34;102844.69;;;15.61;100.00
42105;BME280;68365;51.472;5.712;2023-04-03T12:01:11;102845.38;;;15.63;100.00
42105;BME280;68365;51.472;5.712;2023-04-03T12:04:06;102832.00;;;15.66;100.00
42105;BME280;68365;51.472;5.712;2023-04-03T12:08:58;102840.28;;;15.61;100.00
42105;BME280;68365;51.472;5.712;2023-04-03T12:11:30;102833.53;;;15.59;100.00
42105;BME280;68365;51.472;5.712;2023-04-03T12:29:37;102818.34;;;15.62;100.00
42105;BME280;68365;51.472;5.712;2023-04-03T12:35:39;102818.06;;;15.65;100.00
42105;BME280;68365;51.472;5.712;2023-04-03T12:41:50;102824.81;;;15.68;100.00
42105;BME280;68365;51.472;5.712;2023-04-03T12:44:35;102802.66;;;15.72;100.00
42105;BME280;68365;51.472;5.712;2023-04-03T12:47:16;102806.94;;;15.73;100.00
42105;BME280;68365;51.472;5.712;2023-04-03T12:49:45;102810.22;;;15.65;100.00
42105;BME280;68365;51.472;5.712;2023-04-03T12:52:41;102801.38;;;15.66;100.00
42105;BME280;68365;51.472;5.712;2023-04-03T12:55:20;102801.38;;;15.66;100.00
42105;BME280;68365;51.472;5.712;2023-04-03T12:57:47;102796.31;;;15.65;100.00
42105;BME280;68365;51.472;5.712;2023-04-03T13:00:34;102799.19;;;15.62;100.00
42105;BME280;68365;51.472;5.712;2023-04-03T13:03:06;102792.28;;;15.70;100.00
42105;BME280;68365;51.472;5.712;2023-04-03T13:05:45;102795.34;;;15.66;100.00
42105;BME280;68365;51.472;5.712;2023-04-03T13:08:13;102793.00;;;15.73;100.00
42105;BME280;68365;51.472;5.712;2023-04-03T13:10:58;102797.13;;;15.65;100.00
42105;BME280;68365;51.472;5.712;2023-04-03T13:13:25;102791.75;;;15.67;100.00
42105;BME280;68365;51.472;5.712;2023-04-03T13:15:54;102787.34;;;15.67;100.00
42105;BME280;68365;51.472;5.712;2023-04-03T13:18:36;102794.50;;;15.65;100.00
42105;BME280;68365;51.472;5.712;2023-04-03T13:21:20;102797.00;;;15.67;100.00
42105;BME280;68365;51.472;5.712;2023-04-03T13:23:51;102785.69;;;15.66;100.00
42105;BME280;68365;51.472;5.712;2023-04-03T13:26:19;102780.59;;;15.65;100.00
42105;BME280;68365;51.472;5.712;2023-04-03T13:28:47;102769.97;;;15.66;100.00
42105;BME280;68365;51.472;5.712;2023-04-03T13:36:41;102770.53;;;15.70;100.00
42105;BME280;68365;51.472;5.712;2023-04-03T13:41:45;102779.50;;;15.67;100.00
42105;BME280;68365;51.472;5.712;2023-04-03T13:44:35;102765.38;;;15.41;100.00
42105;BME280;68365;51.472;5.712;2023-04-03T13:47:20;102749.25;;;15.45;100.00
42105;BME280;68365;51.472;5.712;2023-04-03T13:55:32;102750.53;;;15.79;100.00
42105;BME280;68365;51.472;5.712;2023-04-03T14:00:52;102750.63;;;15.87;100.00
42105;BME280;68365;51.472;5.712;2023-04-03T14:03:44;102748.44;;;15.82;100.00
42105;BME280;68365;51.472;5.712;2023-04-03T14:06:16;102753.31;;;15.77;100.00
42105;BME280;68365;51.472;5.712;2023-04-03T14:08:44;102746.41;;;15.76;100.00
42105;BME280;68365;51.472;5.712;2023-04-03T14:11:20;102749.56;;;15.80;100.00
42105;BME280;68365;51.472;5.712;2023-04-03T14:13:48;102747.41;;;15.75;100.00
42105;BME280;68365;51.472;5.712;2023-04-03T14:16:27;102747.78;;;15.70;100.00
42105;BME280;68365;51.472;5.712;2023-04-03T14:18:56;102746.28;;;15.68;100.00
42105;BME280;68365;51.472;5.712;2023-04-03T14:21:23;102739.53;;;15.75;100.00
42105;BME280;68365;51.472;5.712;2023-04-03T14:23:50;102741.72;;;15.80;100.00
42105;BME280;68365;51.472;5.712;2023-04-03T14:26:25;102728.75;;;15.78;100.00
42105;BME280;68365;51.472;5.712;2023-04-03T14:28:54;102735.25;;;15.74;100.00
42105;BME280;68365;51.472;5.712;2023-04-03T14:31:21;102736.25;;;15.73;100.00
42105;BME280;68365;51.472;5.712;2023-04-03T14:33:48;102723.00;;;15.65;100.00
42105;BME280;68365;51.472;5.712;2023-04-03T14:36:21;102731.53;;;15.67;100.00
42105;BME280;68365;51.472;5.712;2023-04-03T14:38:49;102739.53;;;15.65;100.00
42105;BME280;68365;51.472;5.712;2023-04-03T14:41:18;102722.03;;;15.66;100.00
42105;BME280;68365;51.472;5.712;2023-04-03T14:43:46;102725.47;;;15.66;100.00
42105;BME280;68365;51.472;5.712;2023-04-03T14:46:34;102733.19;;;15.68;100.00
42105;BME280;68365;51.472;5.712;2023-04-03T14:49:05;102736.91;;;15.65;100.00